Time;durP1;ratioP1;P1;durP2;ratioP2;P2;SDS_P1;SDS_P2;PMS_P1;PMS_P2;Temp;Humidity;BMP_temperature;BMP_pressure;BME280_temperature;BME280_humidity;BME280_pressure;Samples;Min_cycle;Max_cycle;Signal;HPM_P1;HPM_P2
2021/05/29 00:01:50;;;;;;;3.20;2.90;;;9.10;99.90;;;;;;4938858;29;20272;-75
2021/05/29 00:04:16;;;;;;;3.23;2.93;;;9.00;99.90;;;;;;4938351;29;20265;-75
2021/05/29 00:06:41;;;;;;;11.03;3.37;;;9.00;99.90;;;;;;4938750;29;20190;-75
2021/05/29 00:09:07;;;;;;;6.37;3.10;;;9.00;99.90;;;;;;4938925;29;20181;-74
2021/05/29 00:11:33;;;;;;;2.97;2.57;;;9.00;99.90;;;;;;4938826;29;20245;-75
2021/05/29 00:13:59;;;;;;;2.88;2.67;;;9.00;99.90;;;;;;4936997;29;20205;-75
2021/05/29 00:16:25;;;;;;;5.32;2.70;;;9.00;99.90;;;;;;4938847;29;20762;-75
2021/05/29 00:18:50;;;;;;;3.00;2.70;;;9.00;99.90;;;;;;4937573;29;20265;-74
2021/05/29 00:21:16;;;;;;;3.43;2.87;;;9.00;99.90;;;;;;4938753;29;20185;-75
2021/05/29 00:23:42;;;;;;;2.70;2.50;;;9.00;99.90;;;;;;4938268;29;20693;-75
2021/05/29 00:26:08;;;;;;;4.80;3.17;;;8.90;99.90;;;;;;4938399;29;20264;-75
2021/05/29 00:28:35;;;;;;;4.00;3.30;;;8.90;99.90;;;;;;4938398;29;20296;-75
2021/05/29 00:31:01;;;;;;;4.78;2.75;;;8.90;99.90;;;;;;4938516;29;20177;-74
2021/05/29 00:33:27;;;;;;;4.30;3.10;;;8.90;99.90;;;;;;4938076;29;20208;-74
2021/05/29 00:35:53;;;;;;;3.63;3.33;;;8.90;99.90;;;;;;4938346;29;20178;-75
2021/05/29 00:38:18;;;;;;;4.00;2.72;;;8.80;99.90;;;;;;4938294;29;20685;-75
2021/05/29 00:40:44;;;;;;;3.53;3.23;;;8.80;99.90;;;;;;4938319;29;20205;-74
2021/05/29 00:43:09;;;;;;;6.00;3.87;;;8.80;99.90;;;;;;4937923;29;20193;-74
2021/05/29 00:45:35;;;;;;;3.60;3.30;;;8.80;99.90;;;;;;4938196;29;20197;-74
2021/05/29 00:48:02;;;;;;;4.50;3.50;;;8.80;99.90;;;;;;4938191;29;20288;-74
2021/05/29 00:50:29;;;;;;;3.35;3.03;;;8.70;99.90;;;;;;4938218;29;20189;-75
2021/05/29 00:52:55;;;;;;;4.93;3.40;;;8.70;99.90;;;;;;4936614;29;20228;-75
2021/05/29 00:55:20;;;;;;;5.00;3.63;;;8.70;99.90;;;;;;4937012;29;20178;-74
2021/05/29 00:57:48;;;;;;;5.50;3.33;;;8.60;99.90;;;;;;4938051;29;20883;-75
2021/05/29 01:00:17;;;;;;;3.40;3.10;;;8.60;99.90;;;;;;4936799;29;20627;-76
2021/05/29 01:02:43;;;;;;;4.30;3.30;;;8.50;99.90;;;;;;4937457;29;20212;-81
2021/05/29 01:05:11;;;;;;;5.83;3.70;;;8.40;99.90;;;;;;4937799;29;20221;-74
2021/05/29 01:07:37;;;;;;;4.20;3.80;;;8.40;99.90;;;;;;4935944;29;20723;-74
2021/05/29 01:10:07;;;;;;;4.87;3.00;;;8.40;99.90;;;;;;4937739;29;20178;-74
2021/05/29 01:12:33;;;;;;;3.22;2.92;;;8.40;99.90;;;;;;4936200;29;20977;-75
2021/05/29 01:15:00;;;;;;;4.40;3.07;;;8.40;99.90;;;;;;4937378;29;20205;-74
2021/05/29 01:17:28;;;;;;;6.05;3.05;;;8.30;99.90;;;;;;4937683;29;20458;-74
2021/05/29 01:19:54;;;;;;;4.43;3.75;;;8.20;99.90;;;;;;4937508;29;20265;-74
2021/05/29 01:22:47;;;;;;;4.35;3.95;;;8.20;99.90;;;;;;4937572;29;20718;-75
2021/05/29 01:25:36;;;;;;;3.92;3.63;;;8.20;99.90;;;;;;4937763;29;20232;-74
2021/05/29 01:28:04;;;;;;;6.07;3.72;;;8.10;99.90;;;;;;4937354;29;20336;-74
2021/05/29 01:30:59;;;;;;;5.10;3.67;;;8.10;99.90;;;;;;4937342;29;20179;-75
2021/05/29 01:33:30;;;;;;;4.47;3.83;;;8.10;99.90;;;;;;4937023;29;20276;-74
2021/05/29 01:36:02;;;;;;;4.22;3.45;;;8.00;99.90;;;;;;4937515;29;20268;-74
2021/05/29 01:38:28;;;;;;;4.05;3.42;;;8.00;99.90;;;;;;4937203;29;20261;-75
2021/05/29 01:41:03;;;;;;;4.85;3.13;;;7.90;99.90;;;;;;4937176;29;20185;-74
2021/05/29 01:43:29;;;;;;;5.78;4.30;;;8.00;99.90;;;;;;4936983;29;20207;-75
2021/05/29 01:45:55;;;;;;;4.00;3.60;;;7.90;99.90;;;;;;4937010;29;20669;-75
2021/05/29 01:48:21;;;;;;;3.90;3.60;;;7.80;99.90;;;;;;4937060;29;20495;-74
2021/05/29 01:50:47;;;;;;;3.97;3.17;;;7.80;99.90;;;;;;4936884;29;20428;-74
2021/05/29 01:53:19;;;;;;;4.47;3.60;;;7.80;99.90;;;;;;4936917;29;20177;-74
2021/05/29 01:55:47;;;;;;;6.75;3.28;;;7.70;99.90;;;;;;4937079;29;20414;-75
2021/05/29 01:58:13;;;;;;;5.85;3.78;;;7.70;99.90;;;;;;4936985;29;20189;-74
2021/05/29 02:00:39;;;;;;;4.03;3.22;;;7.60;99.90;;;;;;4937001;29;20177;-74
2021/05/29 02:03:04;;;;;;;4.40;3.90;;;7.60;99.90;;;;;;4936353;29;20200;-74
2021/05/29 02:05:33;;;;;;;8.50;3.50;;;7.50;99.90;;;;;;4936781;29;20441;-75
2021/05/29 02:08:04;;;;;;;3.70;3.20;;;7.50;99.90;;;;;;4936709;29;20205;-74
2021/05/29 02:10:32;;;;;;;3.20;2.90;;;7.50;99.90;;;;;;4936827;29;20606;-74
2021/05/29 02:13:01;;;;;;;6.72;3.30;;;7.40;99.90;;;;;;4936072;29;20236;-75
2021/05/29 02:15:32;;;;;;;3.33;3.03;;;7.40;99.90;;;;;;4936642;29;20541;-74
2021/05/29 02:18:01;;;;;;;5.20;3.35;;;7.40;99.90;;;;;;4936744;29;20225;-74
2021/05/29 02:20:52;;;;;;;5.40;3.22;;;7.30;99.90;;;;;;4936580;29;20180;-74
2021/05/29 02:23:23;;;;;;;3.85;3.40;;;7.30;99.90;;;;;;4936105;29;20270;-74
2021/05/29 02:25:49;;;;;;;4.05;3.58;;;7.30;99.90;;;;;;4936312;29;20181;-75
2021/05/29 02:28:15;;;;;;;4.75;3.97;;;7.30;99.90;;;;;;4936374;29;20267;-74
2021/05/29 02:30:41;;;;;;;8.65;3.40;;;7.30;99.90;;;;;;4936387;29;20178;-74
2021/05/29 02:33:08;;;;;;;4.68;3.78;;;7.20;99.90;;;;;;4935876;29;20182;-74
2021/05/29 02:35:34;;;;;;;4.93;4.03;;;7.30;99.90;;;;;;4936374;29;20181;-74
2021/05/29 02:38:00;;;;;;;4.78;3.45;;;7.20;99.90;;;;;;4936262;29;20677;-74
2021/05/29 02:40:26;;;;;;;5.97;3.42;;;7.10;99.90;;;;;;4936270;29;20189;-74
2021/05/29 02:42:52;;;;;;;5.20;3.57;;;7.10;99.90;;;;;;4934750;29;20621;-74
2021/05/29 02:45:18;;;;;;;4.40;3.83;;;7.10;99.90;;;;;;4935841;29;20449;-74
2021/05/29 02:47:43;;;;;;;4.40;3.43;;;7.10;99.90;;;;;;4936379;29;20635;-74
2021/05/29 02:50:10;;;;;;;4.17;3.77;;;7.10;99.90;;;;;;4936313;29;20413;-74
2021/05/29 02:52:36;;;;;;;4.00;3.70;;;7.10;99.90;;;;;;4936118;29;20514;-75
2021/05/29 02:55:03;;;;;;;3.90;3.50;;;6.90;99.90;;;;;;4936087;29;20196;-74
2021/05/29 02:57:29;;;;;;;6.35;5.00;;;6.80;99.90;;;;;;4935096;29;20244;-74
2021/05/29 02:59:54;;;;;;;5.13;4.13;;;6.80;99.90;;;;;;4936298;29;20185;-74
2021/05/29 03:02:20;;;;;;;6.93;4.37;;;6.90;99.90;;;;;;4936075;29;20196;-74
2021/05/29 03:04:45;;;;;;;7.77;4.60;;;6.80;99.90;;;;;;4935580;29;20274;-74
2021/05/29 03:07:11;;;;;;;6.90;4.77;;;6.80;99.90;;;;;;4935969;29;20216;-74
2021/05/29 03:09:37;;;;;;;4.20;3.80;;;6.90;99.90;;;;;;4935973;29;20661;-74
2021/05/29 03:12:04;;;;;;;4.40;3.97;;;6.80;99.90;;;;;;4936061;29;20461;-74
2021/05/29 03:14:30;;;;;;;5.05;4.15;;;6.80;99.90;;;;;;4935481;29;20613;-74
2021/05/29 03:16:55;;;;;;;5.87;4.50;;;6.80;99.90;;;;;;4935863;29;20261;-74
2021/05/29 03:19:21;;;;;;;13.80;4.03;;;6.80;99.90;;;;;;4935830;29;20181;-74
2021/05/29 03:21:47;;;;;;;5.47;4.33;;;6.80;99.90;;;;;;4935827;29;20573;-74
2021/05/29 03:24:13;;;;;;;6.13;4.10;;;6.80;99.90;;;;;;4935433;29;20203;-74
2021/05/29 03:26:39;;;;;;;4.53;4.00;;;6.80;99.90;;;;;;4935758;29;20181;-74
2021/05/29 03:29:05;;;;;;;7.10;4.63;;;6.80;99.90;;;;;;4935785;29;20181;-74
2021/05/29 03:31:32;;;;;;;6.47;5.68;;;6.80;99.90;;;;;;4938267;29;20189;-74
2021/05/29 03:33:58;;;;;;;8.85;5.13;;;6.70;99.90;;;;;;4939407;29;20299;-74
2021/05/29 03:36:23;;;;;;;8.33;5.17;;;6.60;99.90;;;;;;4939710;29;20256;-75
2021/05/29 03:38:49;;;;;;;9.13;5.13;;;6.60;99.90;;;;;;4939426;29;20432;-74
2021/05/29 03:41:14;;;;;;;4.27;3.87;;;6.60;99.90;;;;;;4939406;29;20185;-74
2021/05/29 03:43:40;;;;;;;10.67;5.10;;;6.60;99.90;;;;;;4938802;29;20224;-75
2021/05/29 03:46:06;;;;;;;5.63;5.10;;;6.60;99.90;;;;;;4939443;29;20283;-74
2021/05/29 03:48:32;;;;;;;7.13;4.60;;;6.60;99.90;;;;;;4939367;29;20209;-74
2021/05/29 03:50:58;;;;;;;5.80;4.80;;;6.60;99.90;;;;;;4939311;29;20174;-74
2021/05/29 03:53:24;;;;;;;7.50;4.85;;;6.60;99.90;;;;;;4938841;29;20198;-75
2021/05/29 03:55:50;;;;;;;6.90;5.27;;;6.60;99.90;;;;;;4939118;29;20178;-74
2021/05/29 03:58:16;;;;;;;9.90;4.67;;;6.60;99.90;;;;;;4939171;29;20271;-74
2021/05/29 04:00:41;;;;;;;5.70;4.87;;;6.60;99.90;;;;;;4939284;29;20182;-74
2021/05/29 04:03:07;;;;;;;5.50;5.00;;;6.70;99.90;;;;;;4938639;29;20762;-74
2021/05/29 04:05:33;;;;;;;7.07;5.07;;;6.60;99.90;;;;;;4939083;29;20228;-75
2021/05/29 04:07:58;;;;;;;9.43;5.00;;;6.60;99.90;;;;;;4939006;29;20205;-75
2021/05/29 04:10:29;;;;;;;6.93;5.10;;;6.60;99.90;;;;;;4939053;29;20422;-74
2021/05/29 04:12:55;;;;;;;8.15;5.55;;;6.60;99.90;;;;;;4938697;29;20170;-74
2021/05/29 04:15:23;;;;;;;6.10;5.50;;;6.70;99.90;;;;;;4938795;29;20184;-75
2021/05/29 04:17:48;;;;;;;9.07;5.93;;;6.70;99.90;;;;;;4938695;29;20272;-74
2021/05/29 04:20:17;;;;;;;7.23;5.60;;;6.70;99.90;;;;;;4938642;29;20255;-74
2021/05/29 04:22:43;;;;;;;6.07;5.25;;;6.70;99.90;;;;;;4938599;29;20536;-74
2021/05/29 04:25:12;;;;;;;9.38;5.85;;;6.70;99.90;;;;;;4938589;29;20700;-74
2021/05/29 04:27:38;;;;;;;7.47;5.63;;;6.70;99.90;;;;;;4938338;29;20223;-75
2021/05/29 04:30:08;;;;;;;5.17;4.60;;;6.70;99.90;;;;;;4938394;29;20182;-74
2021/05/29 04:32:34;;;;;;;10.15;6.03;;;6.70;99.90;;;;;;4938344;29;20170;-74
2021/05/29 04:35:01;;;;;;;7.33;5.67;;;6.80;99.90;;;;;;4938206;29;20203;-74
2021/05/29 04:37:26;;;;;;;10.15;5.57;;;6.80;99.90;;;;;;4938579;29;20456;-74
2021/05/29 04:39:52;;;;;;;7.60;6.20;;;6.90;99.90;;;;;;4938305;29;20214;-75
2021/05/29 04:42:18;;;;;;;9.33;6.50;;;6.90;99.90;;;;;;4937477;29;20176;-74
2021/05/29 04:44:43;;;;;;;7.03;5.93;;;7.00;99.90;;;;;;4936610;29;20213;-74
2021/05/29 04:47:09;;;;;;;6.50;5.90;;;7.10;99.90;;;;;;4938276;29;20208;-74
2021/05/29 04:49:34;;;;;;;13.90;6.77;;;7.20;99.90;;;;;;4938238;29;20205;-74
2021/05/29 04:52:00;;;;;;;7.93;6.90;;;7.20;99.90;;;;;;4938089;29;20186;-76
2021/05/29 04:54:27;;;;;;;8.17;7.37;;;7.30;99.90;;;;;;4937801;29;20233;-74
2021/05/29 04:56:53;;;;;;;7.78;6.13;;;7.30;99.90;;;;;;4937928;29;20576;-74
2021/05/29 04:59:19;;;;;;;7.88;7.05;;;7.40;99.90;;;;;;4938036;29;20177;-74
2021/05/29 05:01:44;;;;;;;10.70;8.53;;;7.50;99.90;;;;;;4937971;29;20228;-74
2021/05/29 05:04:10;;;;;;;11.23;7.73;;;7.60;99.90;;;;;;4937471;29;20510;-74
2021/05/29 05:06:35;;;;;;;8.90;8.00;;;7.60;99.90;;;;;;4937985;29;20561;-74
2021/05/29 05:09:02;;;;;;;8.63;7.30;;;7.70;99.90;;;;;;4937726;29;20576;-74
2021/05/29 05:11:28;;;;;;;9.00;7.50;;;7.80;99.90;;;;;;4937839;29;20218;-74
2021/05/29 05:13:53;;;;;;;9.23;7.50;;;7.80;99.90;;;;;;4937458;29;20244;-74
2021/05/29 05:16:19;;;;;;;9.07;8.07;;;7.90;99.90;;;;;;4937644;29;20263;-74
2021/05/29 05:18:45;;;;;;;12.93;8.27;;;8.10;99.90;;;;;;4937607;29;20265;-74
2021/05/29 05:21:11;;;;;;;11.35;8.10;;;8.20;99.90;;;;;;4936544;29;20184;-74
2021/05/29 05:23:37;;;;;;;10.10;8.73;;;8.30;99.90;;;;;;4937208;29;20745;-74
2021/05/29 05:26:03;;;;;;;11.20;8.80;;;8.40;99.90;;;;;;4937392;29;20182;-74
2021/05/29 05:28:30;;;;;;;11.90;9.07;;;8.50;99.90;;;;;;4937274;29;20265;-74
2021/05/29 05:31:02;;;;;;;12.50;9.50;;;8.60;99.90;;;;;;4937430;29;20173;-74
2021/05/29 05:33:28;;;;;;;12.23;9.25;;;8.70;99.90;;;;;;4936985;29;20690;-74
2021/05/29 05:35:54;;;;;;;12.32;9.50;;;8.80;99.90;;;;;;4937433;29;20189;-74
2021/05/29 05:38:22;;;;;;;9.37;7.73;;;8.90;99.90;;;;;;4937338;29;20642;-74
2021/05/29 05:40:48;;;;;;;10.10;8.45;;;9.00;99.90;;;;;;4937139;29;20453;-74
2021/05/29 05:43:15;;;;;;;12.47;9.50;;;9.10;99.90;;;;;;4936986;29;20197;-74
2021/05/29 05:45:40;;;;;;;10.43;8.57;;;9.20;99.90;;;;;;4935954;29;20973;-74
2021/05/29 05:48:07;;;;;;;11.63;9.40;;;9.30;99.90;;;;;;4937222;29;20272;-74
2021/05/29 05:50:33;;;;;;;9.50;8.60;;;9.40;99.90;;;;;;4937124;29;20186;-74
2021/05/29 05:52:59;;;;;;;11.50;8.98;;;9.60;99.90;;;;;;4936686;29;20186;-74
2021/05/29 05:55:25;;;;;;;11.10;9.40;;;9.80;99.90;;;;;;4936940;29;20265;-74
2021/05/29 05:57:51;;;;;;;12.63;9.15;;;9.90;99.90;;;;;;4936833;29;20421;-74
2021/05/29 06:00:21;;;;;;;17.33;9.23;;;10.00;99.90;;;;;;4937008;29;20189;-74
2021/05/29 06:02:47;;;;;;;9.48;8.27;;;10.20;99.90;;;;;;4936745;29;20174;-74
2021/05/29 06:05:14;;;;;;;11.13;8.73;;;10.40;99.90;;;;;;4936684;29;20225;-74
2021/05/29 06:07:41;;;;;;;11.35;8.18;;;10.50;99.90;;;;;;4936758;29;20237;-74
2021/05/29 06:10:08;;;;;;;11.68;8.25;;;10.60;99.90;;;;;;4936708;29;20184;-74
2021/05/29 06:12:35;;;;;;;7.97;7.15;;;10.70;99.90;;;;;;4936555;29;20257;-74
2021/05/29 06:18:06;;;;;;;10.57;7.63;;;10.90;99.90;;;;;;4937013;29;20231;-74
2021/05/29 06:20:34;;;;;;;9.40;7.85;;;11.00;99.90;;;;;;4936532;29;20186;-74
2021/05/29 06:23:00;;;;;;;10.48;7.63;;;11.10;99.90;;;;;;4936065;29;20189;-74
2021/05/29 06:25:26;;;;;;;12.10;7.57;;;11.10;99.90;;;;;;4936403;29;20193;-74
2021/05/29 06:27:51;;;;;;;10.27;7.87;;;11.00;99.90;;;;;;4935075;29;20360;-74
2021/05/29 06:30:17;;;;;;;8.00;7.20;;;11.20;99.90;;;;;;4936378;29;20433;-74
2021/05/29 06:32:43;;;;;;;9.30;7.90;;;11.30;99.90;;;;;;4936233;29;20615;-73
2021/05/29 06:35:09;;;;;;;10.20;7.97;;;11.50;99.90;;;;;;4936325;29;20448;-74
2021/05/29 06:37:36;;;;;;;11.23;8.07;;;11.70;99.90;;;;;;4935206;29;20189;-74
2021/05/29 06:40:05;;;;;;;8.95;6.75;;;12.00;99.90;;;;;;4936593;29;20200;-74
2021/05/29 06:42:30;;;;;;;9.75;8.20;;;12.10;99.90;;;;;;4936423;29;20185;-75
2021/05/29 06:44:56;;;;;;;11.90;8.00;;;12.20;99.90;;;;;;4935829;29;20702;-74
2021/05/29 06:47:21;;;;;;;9.87;7.20;;;12.30;99.90;;;;;;4919027;29;20235;-74
2021/05/29 06:49:47;;;;;;;9.43;7.27;;;12.30;99.90;;;;;;4936146;29;20182;-74
2021/05/29 06:52:15;;;;;;;7.57;6.00;;;12.40;99.90;;;;;;4936198;29;20185;-74
2021/05/29 07:00:08;;;;;;;8.93;6.30;;;12.80;99.90;;;;;;4936627;29;20605;-74
2021/05/29 07:02:35;;;;;;;9.52;6.15;;;12.90;99.90;;;;;;4936138;29;20422;-74
2021/05/29 07:05:03;;;;;;;7.63;6.30;;;12.70;99.90;;;;;;4934990;29;20705;-75
2021/05/29 07:07:29;;;;;;;8.95;5.93;;;13.00;99.90;;;;;;4934643;29;20468;-76
2021/05/29 07:09:55;;;;;;;7.88;7.07;;;13.10;99.90;;;;;;4934813;29;20178;-74
2021/05/29 07:12:21;;;;;;;7.77;6.60;;;13.20;99.90;;;;;;4936010;29;20245;-74
2021/05/29 07:14:46;;;;;;;7.33;5.93;;;13.20;99.90;;;;;;4935346;29;20527;-74
2021/05/29 07:17:13;;;;;;;8.63;6.03;;;13.10;99.90;;;;;;4935794;29;20260;-74
2021/05/29 07:19:39;;;;;;;7.17;5.00;;;13.10;99.90;;;;;;4935909;29;20240;-75
2021/05/29 07:22:04;;;;;;;5.00;4.37;;;13.20;99.90;;;;;;4935957;29;20803;-74
2021/05/29 07:24:31;;;;;;;5.23;4.73;;;13.40;99.90;;;;;;4935487;29;20253;-74
2021/05/29 07:26:57;;;;;;;5.97;4.83;;;13.60;99.90;;;;;;4935662;29;20181;-74
2021/05/29 07:29:24;;;;;;;5.23;4.33;;;13.80;99.90;;;;;;4934323;29;20800;-74
2021/05/29 07:31:49;;;;;;;5.53;4.50;;;13.80;99.90;;;;;;4935855;29;20197;-74
2021/05/29 07:34:16;;;;;;;5.37;4.77;;;13.80;99.90;;;;;;4935484;29;20429;-74
2021/05/29 07:36:42;;;;;;;6.03;4.57;;;13.80;99.90;;;;;;4935718;29;20248;-74
2021/05/29 07:39:08;;;;;;;8.03;5.40;;;13.80;99.90;;;;;;4935642;29;20421;-74
2021/05/29 07:41:35;;;;;;;11.40;6.27;;;14.10;99.90;;;;;;4934290;29;20188;-74
2021/05/29 07:44:01;;;;;;;8.10;4.73;;;14.10;99.90;;;;;;4935392;29;20437;-74
2021/05/29 07:46:27;;;;;;;8.53;5.00;;;14.00;99.90;;;;;;4935635;29;20428;-75
2021/05/29 07:48:53;;;;;;;7.50;5.40;;;14.00;99.90;;;;;;4935762;29;20461;-75
2021/05/29 07:51:19;;;;;;;6.40;5.13;;;14.10;99.90;;;;;;4935469;29;20436;-75
2021/05/29 07:53:45;;;;;;;7.73;5.43;;;14.30;99.90;;;;;;4935238;29;20460;-74
2021/05/29 07:56:14;;;;;;;8.00;4.73;;;14.10;99.90;;;;;;4935567;29;20421;-74
2021/05/29 07:58:43;;;;;;;8.60;5.23;;;14.60;99.90;;;;;;4935607;29;20496;-75
2021/05/29 08:01:10;;;;;;;6.47;4.80;;;14.80;99.90;;;;;;4935572;29;20457;-75
2021/05/29 08:03:35;;;;;;;5.43;4.47;;;15.20;99.90;;;;;;4934883;29;20448;-76
2021/05/29 08:06:05;;;;;;;5.83;3.87;;;15.40;99.90;;;;;;4935354;29;20863;-74
2021/05/29 08:08:30;;;;;;;3.90;3.50;;;15.40;99.90;;;;;;4935361;29;20308;-74
2021/05/29 08:10:59;;;;;;;6.47;4.00;;;15.20;99.90;;;;;;4935534;29;20610;-75
2021/05/29 08:13:25;;;;;;;3.87;3.47;;;15.60;99.90;;;;;;4935070;29;20193;-75
2021/05/29 08:15:51;;;;;;;3.67;3.37;;;15.60;99.90;;;;;;4935361;29;20400;-75
2021/05/29 08:18:17;;;;;;;4.03;3.67;;;16.20;99.90;;;;;;4938774;29;20177;-75
2021/05/29 08:20:47;;;;;;;2.80;2.60;;;15.80;99.90;;;;;;4938616;29;20193;-75
2021/05/29 08:23:13;;;;;;;4.30;2.87;;;15.90;99.90;;;;;;4938449;29;20425;-75
2021/05/29 08:25:39;;;;;;;3.50;3.20;;;15.90;99.90;;;;;;4938661;29;20473;-75
2021/05/29 08:28:05;;;;;;;3.50;3.20;;;16.50;99.90;;;;;;4938493;29;20476;-75
2021/05/29 08:30:32;;;;;;;3.63;3.33;;;16.30;99.90;;;;;;4938448;29;20425;-75
2021/05/29 08:32:58;;;;;;;4.53;3.13;;;16.60;99.90;;;;;;4938208;29;20564;-75
2021/05/29 08:35:24;;;;;;;4.70;3.50;;;16.60;99.90;;;;;;4938442;29;20388;-75
2021/05/29 08:37:49;;;;;;;5.07;3.47;;;16.70;99.90;;;;;;4938215;29;20404;-77
2021/05/29 08:40:17;;;;;;;6.20;3.00;;;16.80;99.90;;;;;;4938360;29;20510;-75
2021/05/29 08:42:45;;;;;;;4.17;3.77;;;17.00;99.90;;;;;;4937996;29;20561;-79
2021/05/29 08:45:13;;;;;;;3.70;3.17;;;17.50;99.90;;;;;;4938244;29;20865;-75
2021/05/29 08:47:39;;;;;;;4.73;3.43;;;17.80;99.90;;;;;;4938232;29;20465;-75
2021/05/29 08:50:05;;;;;;;3.27;2.97;;;17.70;99.90;;;;;;4938146;29;20455;-75
2021/05/29 08:52:36;;;;;;;3.60;3.30;;;17.40;99.90;;;;;;4938131;29;20481;-75
2021/05/29 08:55:04;;;;;;;3.40;3.00;;;17.80;99.90;;;;;;4937863;29;20444;-75
2021/05/29 08:57:30;;;;;;;3.07;2.27;;;17.80;99.90;;;;;;4937978;29;20422;-75
2021/05/29 08:59:55;;;;;;;3.40;2.47;;;17.50;99.90;;;;;;4937983;29;20432;-76
2021/05/29 09:02:21;;;;;;;2.50;2.20;;;17.40;99.90;;;;;;4938090;29;20193;-75
2021/05/29 09:05:08;;;;;;;2.40;1.97;;;17.60;99.90;;;;;;4937492;29;20653;-76
2021/05/29 09:07:34;;;;;;;2.80;2.37;;;17.80;99.90;;;;;;4937923;29;20197;-75
2021/05/29 09:10:34;;;;;;;2.30;2.10;;;18.40;99.90;;;;;;4937887;29;20476;-76
2021/05/29 09:13:04;;;;;;;2.60;2.10;;;18.90;99.90;;;;;;4916105;29;20516;-75
2021/05/29 09:15:54;;;;;;;3.10;2.83;;;18.60;99.90;;;;;;4937767;29;20538;-75
2021/05/29 09:18:36;;;;;;;2.90;2.63;;;19.00;99.90;;;;;;4937634;29;20902;-75
2021/05/29 09:21:20;;;;;;;2.53;2.20;;;19.10;99.90;;;;;;4937648;29;20419;-73
2021/05/29 09:23:52;;;;;;;2.80;2.10;;;19.80;99.90;;;;;;4937222;29;20445;-75
2021/05/29 09:26:21;;;;;;;1.93;1.80;;;18.50;99.90;;;;;;4937404;29;20421;-78
2021/05/29 09:28:47;;;;;;;4.53;2.10;;;19.50;99.90;;;;;;4936770;29;20552;-76
2021/05/29 09:31:14;;;;;;;4.00;2.33;;;19.20;99.90;;;;;;4937498;29;20414;-76
2021/05/29 09:33:44;;;;;;;3.60;2.90;;;20.30;99.90;;;;;;4936940;29;20580;-76
2021/05/29 09:36:12;;;;;;;4.93;2.60;;;20.90;99.90;;;;;;4937251;29;20424;-76
2021/05/29 09:38:49;;;;;;;2.27;2.00;;;20.50;99.90;;;;;;4937249;29;20500;-74
2021/05/29 09:41:28;;;;;;;2.90;2.60;;;20.20;99.90;;;;;;4937302;29;20402;-76
2021/05/29 09:43:56;;;;;;;3.83;2.60;;;20.40;99.90;;;;;;4936910;29;20429;-75
2021/05/29 09:46:23;;;;;;;4.73;2.90;;;20.60;99.90;;;;;;4936863;29;20429;-75
2021/05/29 09:48:57;;;;;;;4.80;2.80;;;19.30;99.90;;;;;;4937035;29;21218;-75
2021/05/29 09:51:25;;;;;;;4.50;3.30;;;19.30;99.90;;;;;;4936827;29;20417;-77
2021/05/29 09:53:53;;;;;;;4.73;3.30;;;19.80;99.90;;;;;;4936610;29;20437;-77
2021/05/29 09:56:31;;;;;;;2.97;2.70;;;19.70;99.90;;;;;;4936926;29;20468;-77
2021/05/29 09:59:00;;;;;;;3.07;2.77;;;20.60;99.90;;;;;;4937048;29;20425;-76
2021/05/29 10:01:55;;;;;;;3.60;3.17;;;21.00;99.90;;;;;;4937020;29;20794;-74
2021/05/29 10:04:27;;;;;;;6.40;4.17;;;21.40;99.90;;;;;;4936318;29;20485;-74
2021/05/29 10:06:58;;;;;;;3.80;3.50;;;21.10;99.90;;;;;;4936645;29;20433;-74
2021/05/29 10:09:24;;;;;;;4.03;3.53;;;21.00;99.90;;;;;;4936628;29;20424;-74
2021/05/29 10:11:49;;;;;;;4.00;3.33;;;20.30;99.90;;;;;;4936752;29;20477;-72
2021/05/29 10:14:15;;;;;;;3.87;3.20;;;21.70;99.90;;;;;;4936231;29;20433;-72
2021/05/29 10:16:42;;;;;;;3.50;2.90;;;21.20;99.90;;;;;;4936670;29;20208;-72
2021/05/29 10:19:10;;;;;;;6.70;3.93;;;21.30;99.90;;;;;;4936579;29;20773;-72
2021/05/29 10:21:36;;;;;;;3.27;2.87;;;21.20;99.90;;;;;;4936667;29;20767;-74
2021/05/29 10:24:05;;;;;;;2.93;2.63;;;20.80;99.90;;;;;;4936385;29;20456;-72
2021/05/29 10:26:31;;;;;;;8.60;3.10;;;20.10;99.90;;;;;;4936341;29;20477;-73
2021/05/29 10:28:58;;;;;;;2.73;2.50;;;20.90;99.90;;;;;;4936449;29;20473;-72
2021/05/29 10:31:29;;;;;;;3.10;2.67;;;21.40;99.90;;;;;;4936416;29;20413;-75
2021/05/29 10:33:54;;;;;;;3.73;2.30;;;21.90;99.90;;;;;;4936222;29;20433;-74
2021/05/29 10:36:43;;;;;;;2.40;2.20;;;22.30;99.90;;;;;;4936127;29;20436;-74
2021/05/29 10:39:22;;;;;;;3.00;2.37;;;22.20;99.90;;;;;;4935028;29;20635;-74
2021/05/29 10:42:00;;;;;;;3.57;2.67;;;22.20;99.90;;;;;;4932672;29;20508;-74
2021/05/29 10:44:38;;;;;;;3.40;2.70;;;22.30;99.90;;;;;;4933021;29;20436;-74
2021/05/29 10:47:13;;;;;;;4.00;2.60;;;22.70;99.90;;;;;;4919425;29;20432;-76
2021/05/29 10:49:52;;;;;;;2.47;2.27;;;22.60;99.90;;;;;;4916974;29;20418;-75
2021/05/29 10:52:30;;;;;;;3.90;2.77;;;22.00;99.90;;;;;;4917480;29;20418;-72
2021/05/29 10:55:17;;;;;;;4.10;2.37;;;22.60;99.90;;;;;;4916697;29;20449;-77
2021/05/29 10:58:02;;;;;;;3.27;2.20;;;23.20;99.90;;;;;;4917091;29;20433;-74
2021/05/29 11:00:40;;;;;;;3.90;2.60;;;24.20;99.90;;;;;;4917352;29;20418;-74
2021/05/29 11:03:18;;;;;;;2.60;2.40;;;23.10;99.90;;;;;;4916567;29;20418;-74
2021/05/29 11:05:45;;;;;;;2.37;2.17;;;22.60;99.90;;;;;;4916746;29;20460;-74
2021/05/29 11:08:49;;;;;;;1.77;1.67;;;23.20;99.90;;;;;;4916969;29;20967;-74
2021/05/29 11:11:37;;;;;;;3.00;2.70;;;24.00;99.90;;;;;;4917249;29;20426;-74
2021/05/29 11:14:49;;;;;;;3.83;2.30;;;22.80;99.90;;;;;;4916695;29;20434;-74
2021/05/29 11:17:17;;;;;;;3.03;2.37;;;23.20;99.90;;;;;;4911587;29;20807;-74
2021/05/29 11:20:00;;;;;;;5.10;2.80;;;22.80;99.90;;;;;;4916937;29;20428;-74
2021/05/29 11:22:25;;;;;;;2.73;2.53;;;22.40;99.90;;;;;;4916952;29;20413;-74
2021/05/29 11:24:56;;;;;;;4.73;3.00;;;21.80;99.90;;;;;;4916695;29;20442;-74
2021/05/29 11:27:34;;;;;;;2.97;2.67;;;21.20;99.90;;;;;;4916950;29;20273;-73
2021/05/29 11:30:10;;;;;;;4.97;3.20;;;21.50;99.90;;;;;;4916993;29;20418;-73
2021/05/29 11:33:13;;;;;;;4.83;3.20;;;21.80;99.90;;;;;;4916724;29;20902;-74
2021/05/29 11:35:49;;;;;;;2.57;2.30;;;21.90;99.90;;;;;;4914662;29;20431;-74
2021/05/29 11:38:27;;;;;;;2.87;2.57;;;21.80;99.90;;;;;;4916798;29;20422;-74
2021/05/29 11:41:09;;;;;;;3.67;3.00;;;22.00;99.90;;;;;;4916708;29;20504;-75
2021/05/29 11:43:38;;;;;;;2.73;2.53;;;22.90;99.90;;;;;;4916248;29;20478;-75
2021/05/29 11:46:06;;;;;;;2.47;2.20;;;23.10;99.90;;;;;;4916690;29;20426;-76
2021/05/29 11:48:37;;;;;;;2.43;2.23;;;23.70;99.90;;;;;;4916479;29;20468;-76
2021/05/29 11:51:10;;;;;;;2.80;2.40;;;23.60;99.90;;;;;;4917018;29;20414;-75
2021/05/29 11:53:50;;;;;;;6.93;2.90;;;24.00;99.90;;;;;;4919658;29;20439;-76
2021/05/29 11:56:17;;;;;;;2.93;2.60;;;24.00;99.90;;;;;;4920454;29;20819;-73
2021/05/29 11:58:47;;;;;;;4.10;2.50;;;24.00;99.90;;;;;;4920212;29;20419;-74
2021/05/29 12:01:18;;;;;;;3.90;3.07;;;23.80;99.90;;;;;;4919915;29;20493;-74
2021/05/29 12:03:47;;;;;;;5.90;2.97;;;23.80;99.90;;;;;;4919382;29;20460;-74
2021/05/29 12:06:31;;;;;;;3.90;3.10;;;23.00;99.90;;;;;;4920037;29;20513;-74
2021/05/29 12:08:58;;;;;;;2.80;2.50;;;23.10;99.90;;;;;;4919961;29;20477;-74
2021/05/29 12:11:32;;;;;;;2.87;2.60;;;23.70;99.90;;;;;;4919836;29;20418;-75
2021/05/29 12:14:24;;;;;;;2.60;2.20;;;23.80;99.90;;;;;;4919429;29;20430;-74
2021/05/29 12:16:55;;;;;;;3.70;3.40;;;24.20;99.90;;;;;;4919795;29;20421;-74
2021/05/29 12:19:32;;;;;;;5.20;3.40;;;24.80;99.90;;;;;;4919932;29;20414;-74
2021/05/29 12:22:03;;;;;;;4.07;3.77;;;24.80;99.90;;;;;;4919875;29;20794;-75
2021/05/29 12:24:35;;;;;;;4.07;3.60;;;24.50;99.90;;;;;;4919230;29;20460;-74
2021/05/29 12:27:01;;;;;;;5.73;3.90;;;24.40;99.90;;;;;;4919602;29;20425;-74
2021/05/29 12:29:27;;;;;;;4.30;3.47;;;24.30;99.90;;;;;;4919634;29;20828;-74
2021/05/29 12:32:00;;;;;;;4.30;3.70;;;24.70;99.90;;;;;;4919476;29;20186;-75
2021/05/29 12:34:28;;;;;;;3.53;3.20;;;25.00;99.90;;;;;;4919210;29;20450;-74
2021/05/29 12:37:02;;;;;;;3.83;3.43;;;25.20;99.90;;;;;;4919434;29;20418;-74
2021/05/29 12:40:03;;;;;;;4.70;4.17;;;25.60;99.90;;;;;;4919260;29;20425;-73
2021/05/29 12:42:41;;;;;;;4.03;3.63;;;25.10;99.90;;;;;;4888773;29;20900;-75
2021/05/29 12:45:25;;;;;;;5.33;3.33;;;24.70;99.90;;;;;;4918904;29;20442;-74
2021/05/29 12:48:10;;;;;;;3.40;3.10;;;24.70;99.90;;;;;;4918713;29;20484;-74
2021/05/29 12:50:38;;;;;;;4.20;2.97;;;24.90;99.90;;;;;;4919085;29;20410;-74
2021/05/29 12:53:13;;;;;;;4.27;3.03;;;25.50;99.90;;;;;;4918911;29;20494;-74
2021/05/29 12:55:40;;;;;;;4.20;3.30;;;25.00;98.40;;;;;;4919172;29;20421;-74
2021/05/29 12:58:16;;;;;;;3.57;3.30;;;25.30;97.60;;;;;;4920252;29;20786;-74
2021/05/29 13:01:14;;;;;;;4.00;3.30;;;24.90;97.60;;;;;;4919264;29;20425;-73
2021/05/29 13:12:25;;;;;;;4.50;4.07;;;25.50;94.80;;;;;;4929352;29;20419;-73
2021/05/29 13:14:51;;;;;;;5.47;3.70;;;25.80;97.60;;;;;;4937005;29;20437;-74
2021/05/29 13:17:28;;;;;;;5.97;4.43;;;26.50;97.80;;;;;;4937728;29;20188;-73
2021/05/29 13:20:06;;;;;;;3.97;3.67;;;24.90;93.10;;;;;;4936594;29;20413;-74